Time;durP1;ratioP1;P1;durP2;ratioP2;P2;SDS_P1;SDS_P2;PMS_P1;PMS_P2;Temp;Humidity;BMP_temperature;BMP_pressure;BME280_temperature;BME280_humidity;BME280_pressure;Samples;Min_cycle;Max_cycle;Signal;HPM_P1;HPM_P2
2023/04/11 00:00:38;;;;;;;14.13;3.27;;;12.50;99.90;;;;;;5007477;28;20234;-33
2023/04/11 00:03:07;;;;;;;12.27;3.00;;;12.50;99.90;;;;;;5002614;28;20209;-33
2023/04/11 00:05:37;;;;;;;24.90;4.27;;;12.50;99.90;;;;;;5002689;28;20732;-33
2023/04/11 00:08:04;;;;;;;15.20;3.30;;;12.50;99.90;;;;;;5002286;28;20225;-33
2023/04/11 00:10:34;;;;;;;16.07;3.53;;;12.40;99.90;;;;;;5002550;28;20225;-33
2023/04/11 00:13:03;;;;;;;16.63;3.63;;;12.40;99.90;;;;;;5002159;28;20225;-33
2023/04/11 00:15:31;;;;;;;23.37;4.30;;;12.40;99.90;;;;;;5004104;28;20206;-33
2023/04/11 00:17:58;;;;;;;16.67;4.20;;;12.40;99.90;;;;;;5003879;28;20272;-33
2023/04/11 00:20:27;;;;;;;15.13;3.47;;;12.40;99.90;;;;;;5002082;28;20244;-33
2023/04/11 00:22:57;;;;;;;17.63;3.90;;;12.40;99.90;;;;;;5002023;28;20292;-33
2023/04/11 00:25:28;;;;;;;16.13;3.33;;;12.30;99.90;;;;;;5001315;28;20252;-33
2023/04/11 00:28:04;;;;;;;15.93;3.30;;;12.30;99.90;;;;;;5001943;28;20588;-33
2023/04/11 00:30:31;;;;;;;15.97;3.57;;;12.30;99.90;;;;;;5008607;28;20272;-33
2023/04/11 00:32:58;;;;;;;22.30;4.27;;;12.30;99.90;;;;;;5018074;28;20684;-33
2023/04/11 00:35:25;;;;;;;20.33;4.27;;;12.30;99.90;;;;;;5013997;28;20243;-33
2023/04/11 00:37:57;;;;;;;15.10;3.57;;;12.30;99.90;;;;;;5027075;28;20739;-33
2023/04/11 00:40:24;;;;;;;18.30;4.10;;;12.30;99.90;;;;;;5035313;28;20308;-33
2023/04/11 00:42:51;;;;;;;18.33;3.60;;;12.30;99.90;;;;;;5005773;28;20204;-34
2023/04/11 00:45:26;;;;;;;16.07;3.60;;;12.30;99.90;;;;;;5020779;28;20225;-33
2023/04/11 00:47:56;;;;;;;16.70;3.23;;;12.30;99.90;;;;;;5005854;28;20305;-35
2023/04/11 00:50:28;;;;;;;17.63;3.37;;;12.30;99.90;;;;;;5006724;28;20728;-34
2023/04/11 00:52:58;;;;;;;16.03;3.70;;;12.30;99.90;;;;;;5005739;28;20220;-33
2023/04/11 00:55:26;;;;;;;12.70;3.47;;;12.30;99.90;;;;;;5004971;28;20328;-34
2023/04/11 00:57:54;;;;;;;19.97;3.97;;;12.20;99.90;;;;;;5006949;28;20255;-34
2023/04/11 01:00:24;;;;;;;17.73;3.63;;;12.30;99.90;;;;;;5004429;28;20226;-34
2023/04/11 01:02:55;;;;;;;16.73;3.97;;;12.20;99.90;;;;;;5008495;28;20295;-34
2023/04/11 01:05:25;;;;;;;16.37;3.87;;;12.20;99.90;;;;;;5006803;28;20233;-33
2023/04/11 01:07:55;;;;;;;15.90;3.57;;;12.10;99.90;;;;;;5018663;28;20763;-34
2023/04/11 01:10:29;;;;;;;15.97;3.40;;;12.10;99.90;;;;;;5020286;28;20301;-33
2023/04/11 01:13:02;;;;;;;22.43;4.53;;;12.10;99.90;;;;;;5011999;28;20233;-34
2023/04/11 01:15:30;;;;;;;16.23;3.57;;;12.10;99.90;;;;;;5024689;28;21090;-33
2023/04/11 01:18:00;;;;;;;16.83;3.70;;;12.10;99.90;;;;;;5021080;28;20272;-34
2023/04/11 01:20:30;;;;;;;22.43;3.87;;;12.10;99.90;;;;;;5006484;28;20225;-33
2023/04/11 01:23:08;;;;;;;18.93;3.70;;;12.10;99.90;;;;;;5014846;28;20763;-33
2023/04/11 01:25:35;;;;;;;16.97;3.43;;;12.00;99.90;;;;;;5021884;28;20201;-35
2023/04/11 01:28:02;;;;;;;14.87;4.37;;;12.00;99.90;;;;;;5008405;28;20280;-35
2023/04/11 01:30:30;;;;;;;18.90;3.73;;;12.00;99.90;;;;;;5022403;28;20781;-35
2023/04/11 01:33:00;;;;;;;19.97;3.97;;;11.90;99.90;;;;;;5022954;28;20196;-35
2023/04/11 01:35:29;;;;;;;14.60;3.23;;;11.90;99.90;;;;;;5022480;28;20223;-35
2023/04/11 01:37:57;;;;;;;17.13;3.60;;;11.90;99.90;;;;;;5026214;28;20227;-35
2023/04/11 01:40:28;;;;;;;22.67;4.40;;;11.90;99.90;;;;;;5005316;28;20352;-35
2023/04/11 01:43:00;;;;;;;24.03;3.97;;;11.90;99.90;;;;;;5006195;28;20579;-35
2023/04/11 01:45:28;;;;;;;19.77;4.33;;;11.80;99.90;;;;;;5006073;28;20277;-35
2023/04/11 01:48:00;;;;;;;19.07;4.20;;;11.80;99.90;;;;;;5013673;28;20331;-35
2023/04/11 01:50:28;;;;;;;13.57;3.30;;;11.80;99.90;;;;;;5020239;28;20585;-35
2023/04/11 01:52:57;;;;;;;16.47;3.30;;;11.80;99.90;;;;;;5005985;28;20209;-35
2023/04/11 01:55:26;;;;;;;21.03;4.20;;;11.80;99.90;;;;;;5003549;28;20689;-34
2023/04/11 01:57:56;;;;;;;24.70;3.93;;;11.80;99.90;;;;;;5005743;28;20223;-34
2023/04/11 02:00:23;;;;;;;19.83;3.50;;;11.80;99.90;;;;;;5005416;28;20711;-35
2023/04/11 02:02:57;;;;;;;15.63;3.50;;;11.80;99.90;;;;;;5003992;28;20700;-35
2023/04/11 02:05:28;;;;;;;17.73;3.53;;;11.80;99.90;;;;;;5005718;28;20719;-35
2023/04/11 02:07:55;;;;;;;16.87;3.27;;;11.80;99.90;;;;;;5022372;28;20197;-35
2023/04/11 02:10:24;;;;;;;15.17;3.47;;;11.70;99.90;;;;;;5016645;28;20677;-35
2023/04/11 02:12:54;;;;;;;19.73;3.53;;;11.70;99.90;;;;;;5016588;28;20205;-35
2023/04/11 02:15:21;;;;;;;17.70;3.67;;;11.70;99.90;;;;;;5025244;28;20205;-34
2023/04/11 02:17:52;;;;;;;14.80;3.40;;;11.70;99.90;;;;;;5024050;28;20196;-35
2023/04/11 02:20:24;;;;;;;16.97;3.27;;;11.70;99.90;;;;;;5039109;28;20231;-35
2023/04/11 02:22:54;;;;;;;15.23;3.20;;;11.70;99.90;;;;;;5007870;28;20293;-35
2023/04/11 02:25:21;;;;;;;13.30;3.13;;;11.60;99.90;;;;;;5002709;28;20763;-35
2023/04/11 02:27:49;;;;;;;15.67;3.20;;;11.60;99.90;;;;;;5003961;28;20264;-34
2023/04/11 02:30:16;;;;;;;14.20;2.70;;;11.60;99.90;;;;;;5024389;28;20638;-35
2023/04/11 02:32:48;;;;;;;12.73;3.30;;;11.60;99.90;;;;;;5024862;28;20717;-34
2023/04/11 02:35:15;;;;;;;14.80;3.47;;;11.60;99.90;;;;;;5024606;28;20197;-35
2023/04/11 02:37:42;;;;;;;18.30;3.67;;;11.70;99.90;;;;;;5009787;28;20284;-35
2023/04/11 02:40:10;;;;;;;22.53;4.10;;;11.60;99.90;;;;;;5004086;28;20774;-35
2023/04/11 02:42:43;;;;;;;13.37;3.10;;;11.60;99.90;;;;;;5003513;28;20194;-35
2023/04/11 02:45:15;;;;;;;17.77;3.80;;;11.60;99.90;;;;;;5022188;28;20316;-35
2023/04/11 02:47:42;;;;;;;16.23;3.80;;;11.60;99.90;;;;;;5014591;28;20758;-35
2023/04/11 02:50:16;;;;;;;20.13;3.60;;;11.60;99.90;;;;;;5003007;28;20217;-35
2023/04/11 02:52:49;;;;;;;21.70;3.87;;;11.60;99.90;;;;;;5004693;28;20215;-35
2023/04/11 02:55:18;;;;;;;15.83;3.47;;;11.60;99.90;;;;;;5003796;28;20688;-35
2023/04/11 02:57:48;;;;;;;19.47;3.83;;;11.60;99.90;;;;;;5002779;28;20213;-34
2023/04/11 03:00:17;;;;;;;13.90;3.53;;;11.60;99.90;;;;;;5018951;28;20229;-33
2023/04/11 03:02:44;;;;;;;15.50;3.37;;;11.50;99.90;;;;;;5003131;28;20256;-34
2023/04/11 03:05:12;;;;;;;22.20;4.00;;;11.60;99.90;;;;;;5004626;28;20229;-33
2023/04/11 03:07:39;;;;;;;18.47;3.93;;;11.50;99.90;;;;;;5018860;28;20217;-34
2023/04/11 03:10:07;;;;;;;17.43;3.17;;;11.50;99.90;;;;;;5002084;28;20295;-34
2023/04/11 03:12:34;;;;;;;14.93;3.17;;;11.50;99.90;;;;;;5004407;28;20217;-34
2023/04/11 03:15:04;;;;;;;12.90;3.27;;;11.50;99.90;;;;;;5003897;28;20213;-34
2023/04/11 03:17:33;;;;;;;17.27;3.57;;;11.50;99.90;;;;;;5005282;28;20214;-34
2023/04/11 03:20:05;;;;;;;16.03;4.10;;;11.40;99.90;;;;;;5007722;28;20217;-34
2023/04/11 03:22:35;;;;;;;23.70;3.70;;;11.40;99.90;;;;;;5004161;28;20960;-34
2023/04/11 03:25:05;;;;;;;18.97;3.83;;;11.40;99.90;;;;;;5003233;28;20248;-33
2023/04/11 03:27:32;;;;;;;18.73;3.70;;;11.40;99.90;;;;;;5004286;28;20217;-34
2023/04/11 03:30:06;;;;;;;12.17;3.50;;;11.40;99.90;;;;;;5015784;28;20480;-34
2023/04/11 03:32:36;;;;;;;15.97;3.10;;;11.30;99.90;;;;;;5038022;28;20213;-34
2023/04/11 03:35:03;;;;;;;15.57;3.83;;;11.30;99.90;;;;;;5022162;28;20216;-34
2023/04/11 03:37:30;;;;;;;17.63;3.10;;;11.30;99.90;;;;;;5019937;28;20304;-34
2023/04/11 03:39:58;;;;;;;12.07;2.87;;;11.30;99.90;;;;;;5001808;28;20311;-34
2023/04/11 03:42:25;;;;;;;13.10;2.73;;;11.30;99.90;;;;;;5003778;28;20727;-34
2023/04/11 03:44:54;;;;;;;15.40;3.63;;;11.20;99.90;;;;;;5002322;28;20825;-34
2023/04/11 03:47:21;;;;;;;14.33;3.50;;;11.20;99.90;;;;;;5018765;28;20233;-34
2023/04/11 03:49:51;;;;;;;16.80;3.30;;;11.20;99.90;;;;;;5016005;28;20760;-34
2023/04/11 03:52:21;;;;;;;14.73;3.03;;;11.20;99.90;;;;;;5004245;28;20206;-34
2023/04/11 03:54:48;;;;;;;12.53;3.27;;;11.20;99.90;;;;;;5016990;28;20202;-34
2023/04/11 03:57:17;;;;;;;19.80;3.37;;;11.20;99.90;;;;;;5003373;28;20308;-34
2023/04/11 03:59:46;;;;;;;15.03;3.63;;;11.20;99.90;;;;;;5003981;28;20726;-34
2023/04/11 04:02:14;;;;;;;13.00;2.90;;;11.10;99.90;;;;;;5003692;28;20225;-34
2023/04/11 04:04:47;;;;;;;14.20;3.27;;;11.10;99.90;;;;;;5003014;28;20288;-34
2023/04/11 04:07:15;;;;;;;15.40;3.53;;;11.10;99.90;;;;;;5003678;28;20271;-34
2023/04/11 04:09:47;;;;;;;16.83;3.13;;;11.10;99.90;;;;;;5004255;28;20233;-34
2023/04/11 04:12:16;;;;;;;25.30;4.60;;;11.10;99.90;;;;;;5027492;28;20629;-34
2023/04/11 04:14:46;;;;;;;14.90;3.40;;;11.10;99.90;;;;;;5012949;28;20259;-34
2023/04/11 04:17:15;;;;;;;20.07;3.50;;;11.00;99.90;;;;;;5007609;28;20225;-33
2023/04/11 04:19:44;;;;;;;13.33;2.73;;;11.00;99.90;;;;;;5007722;28;20286;-34
2023/04/11 04:22:16;;;;;;;14.50;3.43;;;11.10;99.90;;;;;;5006000;28;20304;-34
2023/04/11 04:24:45;;;;;;;16.93;3.27;;;11.00;99.90;;;;;;5006411;28;20213;-34
2023/04/11 04:27:17;;;;;;;12.73;3.10;;;11.00;99.90;;;;;;4989824;28;20304;-34
2023/04/11 04:29:46;;;;;;;13.00;2.90;;;11.00;99.90;;;;;;5007547;28;20198;-34
2023/04/11 04:32:21;;;;;;;14.97;3.73;;;11.00;99.90;;;;;;5005766;28;20205;-34
2023/04/11 04:34:54;;;;;;;14.80;3.40;;;11.00;99.90;;;;;;5014330;28;20664;-33
2023/04/11 04:37:23;;;;;;;19.93;3.47;;;11.00;99.90;;;;;;5005755;28;20475;-34
2023/04/11 04:39:54;;;;;;;17.10;3.83;;;11.00;99.90;;;;;;5006342;28;20252;-34
2023/04/11 04:42:27;;;;;;;13.80;3.03;;;10.90;99.90;;;;;;5007397;28;20734;-34
2023/04/11 04:44:58;;;;;;;20.30;4.23;;;10.90;99.90;;;;;;5010467;28;20720;-34
2023/04/11 04:47:32;;;;;;;15.20;3.10;;;10.90;99.90;;;;;;5005549;28;20560;-34
2023/04/11 04:50:02;;;;;;;15.63;3.00;;;10.90;99.90;;;;;;5007175;28;20201;-34
2023/04/11 04:52:31;;;;;;;10.77;2.57;;;10.90;99.90;;;;;;5021560;28;20207;-34
2023/04/11 04:55:00;;;;;;;13.10;2.83;;;10.90;99.90;;;;;;4988378;28;20249;-34
2023/04/11 04:57:33;;;;;;;15.73;3.30;;;10.90;99.90;;;;;;5005213;28;20759;-34
2023/04/11 05:00:10;;;;;;;15.27;3.37;;;10.90;99.90;;;;;;5006475;28;20220;-34
2023/04/11 05:02:41;;;;;;;14.00;3.33;;;10.90;99.90;;;;;;5013713;28;20300;-34
2023/04/11 05:05:10;;;;;;;13.93;3.13;;;10.90;99.90;;;;;;5026515;28;20268;-34
2023/04/11 05:07:37;;;;;;;9.17;2.43;;;11.00;99.90;;;;;;5011227;28;20206;-34
2023/04/11 05:10:07;;;;;;;12.63;2.77;;;10.90;99.90;;;;;;5024168;28;20604;-34
2023/04/11 05:12:39;;;;;;;14.00;3.33;;;10.90;99.90;;;;;;5010965;28;20235;-34
2023/04/11 05:15:11;;;;;;;16.47;3.40;;;10.90;99.90;;;;;;5007742;28;20240;-34
2023/04/11 05:17:43;;;;;;;9.10;2.30;;;11.00;99.90;;;;;;5009214;28;20204;-34
2023/04/11 05:20:10;;;;;;;14.93;2.83;;;10.90;99.90;;;;;;5024105;28;20256;-34
2023/04/11 05:22:41;;;;;;;20.23;4.20;;;10.90;99.90;;;;;;5011498;28;20222;-34
2023/04/11 05:25:11;;;;;;;12.57;2.90;;;10.90;99.90;;;;;;5011408;28;20229;-34
2023/04/11 05:27:38;;;;;;;19.13;3.40;;;10.90;99.90;;;;;;5015123;28;20288;-34
2023/04/11 05:30:06;;;;;;;15.67;3.33;;;10.90;99.90;;;;;;5020520;28;20276;-34
2023/04/11 05:32:33;;;;;;;15.20;3.63;;;11.00;99.90;;;;;;5007566;28;20212;-34
2023/04/11 05:35:03;;;;;;;13.73;2.87;;;11.00;99.90;;;;;;5015459;28;20197;-34
2023/04/11 05:37:32;;;;;;;21.13;4.40;;;11.00;99.90;;;;;;5000442;28;20370;-34
2023/04/11 05:40:00;;;;;;;12.73;3.27;;;11.00;99.90;;;;;;5009102;28;20232;-34
2023/04/11 05:42:27;;;;;;;16.57;3.13;;;11.00;99.90;;;;;;5024253;28;20227;-34
2023/04/11 05:44:56;;;;;;;13.63;3.30;;;10.90;99.90;;;;;;5017297;28;20888;-34
2023/04/11 05:47:23;;;;;;;16.10;3.40;;;11.00;99.90;;;;;;5010898;28;20304;-34
2023/04/11 05:49:53;;;;;;;19.33;3.10;;;10.90;99.90;;;;;;5021283;28;20235;-34
2023/04/11 05:52:20;;;;;;;19.37;3.87;;;10.90;99.90;;;;;;5015554;28;21018;-34
2023/04/11 05:54:49;;;;;;;16.33;2.90;;;10.90;99.90;;;;;;4998190;28;20248;-34
2023/04/11 05:57:17;;;;;;;18.57;3.40;;;11.00;99.90;;;;;;5016357;28;20811;-34
2023/04/11 05:59:48;;;;;;;20.13;3.07;;;10.90;99.90;;;;;;5004640;28;20205;-34
2023/04/11 06:02:16;;;;;;;14.20;3.50;;;11.00;99.90;;;;;;5005419;28;20553;-34
2023/04/11 06:04:48;;;;;;;18.13;2.70;;;11.00;99.90;;;;;;5008614;28;20797;-34
2023/04/11 06:07:21;;;;;;;17.23;3.37;;;11.00;99.90;;;;;;5018976;28;20215;-34
2023/04/11 06:09:50;;;;;;;20.57;3.70;;;11.00;99.90;;;;;;5003846;28;20240;-34
2023/04/11 06:12:18;;;;;;;13.77;2.60;;;11.00;99.90;;;;;;4990188;28;20332;-34
2023/04/11 06:14:47;;;;;;;15.77;3.07;;;11.00;99.90;;;;;;5004302;28;20634;-34
2023/04/11 06:17:19;;;;;;;15.33;3.27;;;11.00;99.90;;;;;;5005236;28;20815;-34
2023/04/11 06:19:48;;;;;;;13.30;3.13;;;10.90;99.90;;;;;;5005602;28;20209;-34
2023/04/11 06:22:18;;;;;;;15.90;3.27;;;10.90;99.90;;;;;;5006327;28;20240;-34
2023/04/11 06:24:47;;;;;;;17.53;3.23;;;11.00;99.90;;;;;;5023860;28;20748;-34
2023/04/11 06:27:19;;;;;;;16.23;4.07;;;11.00;99.90;;;;;;5005058;28;20244;-34
2023/04/11 06:29:46;;;;;;;12.67;2.77;;;11.00;99.90;;;;;;5006129;28;20723;-34
2023/04/11 06:32:16;;;;;;;11.83;3.33;;;11.00;99.90;;;;;;5005927;28;20214;-34
2023/04/11 06:34:43;;;;;;;17.00;3.20;;;11.00;99.90;;;;;;5008857;28;20304;-34
2023/04/11 06:37:15;;;;;;;10.67;2.40;;;11.00;99.90;;;;;;5008524;28;20934;-34
2023/04/11 06:39:42;;;;;;;15.33;2.70;;;11.00;99.90;;;;;;5004420;28;20234;-34
2023/04/11 06:42:11;;;;;;;15.00;2.90;;;11.00;99.90;;;;;;5004212;28;20229;-34
2023/04/11 06:44:41;;;;;;;16.10;2.90;;;11.00;99.90;;;;;;5012342;28;20289;-34
2023/04/11 06:47:10;;;;;;;11.80;2.63;;;11.00;99.90;;;;;;5010179;28;20578;-34
2023/04/11 06:49:39;;;;;;;12.93;3.53;;;11.00;99.90;;;;;;5003776;28;20229;-34
2023/04/11 06:52:07;;;;;;;14.63;2.23;;;11.00;99.90;;;;;;5012324;28;20209;-35
2023/04/11 06:54:34;;;;;;;13.70;2.90;;;11.00;99.90;;;;;;5002328;28;20320;-34
2023/04/11 06:57:03;;;;;;;12.10;2.37;;;11.10;99.90;;;;;;5005094;28;20213;-34
2023/04/11 06:59:36;;;;;;;12.83;2.57;;;11.10;99.90;;;;;;5021500;28;20259;-34
2023/04/11 07:02:03;;;;;;;15.80;3.30;;;11.10;99.90;;;;;;5004859;28;20221;-34
2023/04/11 07:04:30;;;;;;;12.20;3.07;;;11.10;99.90;;;;;;5002595;28;20218;-34
2023/04/11 07:07:00;;;;;;;13.23;2.70;;;11.10;99.90;;;;;;5024400;28;20193;-34
2023/04/11 07:09:27;;;;;;;14.43;2.87;;;11.10;99.90;;;;;;5004918;28;20228;-34
2023/04/11 07:11:57;;;;;;;8.93;2.30;;;11.20;99.90;;;;;;5007828;28;20638;-34
2023/04/11 07:14:27;;;;;;;12.17;2.80;;;11.20;99.90;;;;;;5017510;28;20276;-34
2023/04/11 07:16:56;;;;;;;14.70;2.87;;;11.20;99.90;;;;;;5022367;28;20696;-34
2023/04/11 07:19:26;;;;;;;21.97;3.50;;;11.20;99.90;;;;;;5023904;28;20245;-34
2023/04/11 07:21:55;;;;;;;10.50;2.70;;;11.30;99.90;;;;;;5038393;28;20236;-34
2023/04/11 07:24:22;;;;;;;8.70;2.40;;;11.30;99.90;;;;;;5021640;28;20866;-34
2023/04/11 07:26:53;;;;;;;16.83;3.47;;;11.40;99.90;;;;;;5022930;28;20208;-34
2023/04/11 07:29:25;;;;;;;18.80;3.20;;;11.40;99.90;;;;;;5021381;28;20250;-34
2023/04/11 07:31:52;;;;;;;17.27;2.77;;;11.40;99.90;;;;;;5009257;28;20221;-34
2023/04/11 07:34:21;;;;;;;17.83;3.00;;;11.40;99.90;;;;;;5009134;28;20623;-34
2023/04/11 07:36:59;;;;;;;14.17;3.03;;;11.40;99.90;;;;;;5004314;28;20300;-34
2023/04/11 07:39:29;;;;;;;16.17;3.30;;;11.40;99.90;;;;;;5012967;28;20549;-34
2023/04/11 07:41:56;;;;;;;13.10;2.87;;;11.50;99.90;;;;;;5003026;28;20336;-34
2023/04/11 07:44:26;;;;;;;13.67;3.10;;;11.50;99.90;;;;;;5008471;28;20224;-34
2023/04/11 07:46:53;;;;;;;11.70;2.23;;;11.50;99.90;;;;;;5007347;28;20626;-33
2023/04/11 07:49:20;;;;;;;13.20;2.90;;;11.50;99.90;;;;;;5007460;28;20282;-34
2023/04/11 07:51:50;;;;;;;12.80;2.77;;;11.50;99.90;;;;;;5011184;28;20209;-34
2023/04/11 07:54:19;;;;;;;10.37;2.23;;;11.50;99.90;;;;;;5016467;28;20217;-34
2023/04/11 07:56:51;;;;;;;12.90;2.77;;;11.60;99.90;;;;;;5010484;28;20894;-34
2023/04/11 07:59:20;;;;;;;12.53;2.80;;;11.60;99.90;;;;;;5013751;28;20750;-34
2023/04/11 08:02:06;;;;;;;18.43;2.70;;;11.60;99.90;;;;;;5003247;28;20221;-34
2023/04/11 08:04:36;;;;;;;12.97;3.23;;;11.60;99.90;;;;;;5003548;28;21029;-34
2023/04/11 08:07:05;;;;;;;10.87;2.50;;;11.60;99.90;;;;;;5003759;28;20225;-34
2023/04/11 08:09:35;;;;;;;10.23;2.50;;;11.60;99.90;;;;;;5020611;28;20200;-35
2023/04/11 08:12:05;;;;;;;10.57;2.53;;;11.60;99.90;;;;;;5010777;28;20206;-35
2023/04/11 08:14:35;;;;;;;11.50;2.87;;;11.60;99.90;;;;;;5006256;28;20312;-35
2023/04/11 08:17:02;;;;;;;9.37;2.50;;;11.70;99.90;;;;;;5020133;28;20220;-35
2023/04/11 08:19:35;;;;;;;13.03;2.90;;;11.70;99.90;;;;;;5003247;28;20209;-35
2023/04/11 08:22:05;;;;;;;13.63;2.43;;;11.70;99.90;;;;;;5016219;28;20308;-35
2023/04/11 08:24:32;;;;;;;10.47;2.57;;;11.70;99.90;;;;;;5004393;28;20727;-35
2023/04/11 08:27:04;;;;;;;10.83;2.47;;;11.70;99.90;;;;;;5010066;28;20201;-35
2023/04/11 08:29:31;;;;;;;9.50;2.63;;;11.80;99.90;;;;;;5010099;28;20673;-35
2023/04/11 08:32:00;;;;;;;12.53;2.53;;;11.70;99.90;;;;;;5015453;28;20206;-35
2023/04/11 08:34:30;;;;;;;8.17;2.10;;;11.80;99.90;;;;;;5015153;28;20209;-35
2023/04/11 08:37:02;;;;;;;11.00;2.17;;;11.80;99.90;;;;;;5007341;28;20217;-35
2023/04/11 08:39:32;;;;;;;18.97;2.77;;;11.90;99.90;;;;;;5005976;28;20210;-35
2023/04/11 08:42:02;;;;;;;8.37;2.17;;;11.90;99.90;;;;;;5007167;28;20225;-35
2023/04/11 08:44:29;;;;;;;12.70;2.10;;;11.90;99.90;;;;;;5004026;28;20206;-35
2023/04/11 08:47:03;;;;;;;6.73;1.77;;;12.00;99.90;;;;;;5014233;28;20208;-35
2023/04/11 08:49:35;;;;;;;9.03;1.80;;;11.90;99.90;;;;;;5011116;28;20244;-35
2023/04/11 08:52:15;;;;;;;6.80;1.90;;;12.00;99.90;;;;;;5003084;28;20206;-35
2023/04/11 08:54:50;;;;;;;9.77;2.00;;;12.10;99.90;;;;;;5028133;28;20205;-35
2023/04/11 08:57:27;;;;;;;9.23;1.93;;;12.10;99.90;;;;;;5019943;28;20213;-35
2023/04/11 09:00:09;;;;;;;7.67;1.93;;;12.10;99.90;;;;;;5026564;28;20733;-35
2023/04/11 09:02:56;;;;;;;8.40;2.10;;;12.10;99.90;;;;;;5018878;28;20236;-35
2023/04/11 09:05:28;;;;;;;10.40;2.03;;;12.20;99.90;;;;;;5025495;28;20201;-35
2023/04/11 09:08:06;;;;;;;7.10;1.67;;;12.10;99.90;;;;;;5026315;28;20209;-35
2023/04/11 09:10:33;;;;;;;8.23;1.80;;;12.20;99.90;;;;;;5026246;28;20283;-35
2023/04/11 09:13:25;;;;;;;8.80;2.17;;;12.20;99.90;;;;;;5017012;28;20308;-35
2023/04/11 09:16:08;;;;;;;9.13;1.90;;;12.30;99.90;;;;;;5008539;28;20209;-35
2023/04/11 09:18:36;;;;;;;7.83;1.63;;;12.30;99.90;;;;;;5004956;28;20221;-35
2023/04/11 09:21:08;;;;;;;7.30;2.07;;;12.30;99.90;;;;;;5005395;28;20297;-35
2023/04/11 09:23:40;;;;;;;11.37;2.00;;;12.30;99.90;;;;;;5015773;28;20220;-35
2023/04/11 09:26:09;;;;;;;6.63;1.60;;;12.40;99.90;;;;;;5013248;28;20443;-35
2023/04/11 09:28:51;;;;;;;8.73;1.97;;;12.40;99.90;;;;;;5019448;28;20215;-36
2023/04/11 09:31:19;;;;;;;6.63;1.57;;;12.50;99.90;;;;;;5005740;28;20206;-35
2023/04/11 09:33:53;;;;;;;9.87;1.70;;;12.50;99.90;;;;;;5011060;28;20220;-35
2023/04/11 09:36:28;;;;;;;7.00;1.80;;;12.50;99.90;;;;;;5026803;28;20578;-35
2023/04/11 09:39:01;;;;;;;7.83;1.70;;;12.60;99.90;;;;;;5010308;28;20204;-35
2023/04/11 09:41:35;;;;;;;10.93;1.50;;;12.60;99.90;;;;;;5023753;28;20223;-35
2023/04/11 09:44:02;;;;;;;9.90;1.73;;;12.60;99.90;;;;;;5018460;28;20211;-36
2023/04/11 09:46:32;;;;;;;9.27;2.20;;;12.60;99.90;;;;;;5024986;28;20197;-35
2023/04/11 09:49:01;;;;;;;9.20;1.50;;;12.60;99.90;;;;;;5020391;28;20596;-35
2023/04/11 09:51:34;;;;;;;7.07;1.60;;;12.60;99.90;;;;;;5003895;28;20197;-35
2023/04/11 09:54:03;;;;;;;9.97;1.90;;;12.60;99.90;;;;;;5005570;28;20721;-35
2023/04/11 09:56:35;;;;;;;9.17;1.50;;;12.50;99.90;;;;;;5023296;28;20291;-35
2023/04/11 09:59:03;;;;;;;9.07;1.63;;;12.60;99.90;;;;;;5020142;28;20598;-35
2023/04/11 10:01:33;;;;;;;7.33;1.60;;;12.60;99.90;;;;;;5009721;28;20638;-35
2023/04/11 10:04:00;;;;;;;9.80;1.70;;;12.60;99.90;;;;;;5005918;28;20664;-35
2023/04/11 10:06:32;;;;;;;9.80;2.10;;;12.60;99.90;;;;;;5014699;28;20221;-35
2023/04/11 10:09:07;;;;;;;8.43;1.40;;;12.60;99.90;;;;;;5021768;28;20344;-34
2023/04/11 10:11:35;;;;;;;6.07;1.70;;;12.60;99.90;;;;;;5014645;28;21009;-34
2023/04/11 10:14:03;;;;;;;5.27;1.40;;;12.60;99.90;;;;;;5005750;28;20205;-34
2023/04/11 10:16:32;;;;;;;7.40;1.57;;;12.70;99.90;;;;;;5006857;28;20272;-34
2023/04/11 10:19:00;;;;;;;8.93;1.60;;;12.70;99.90;;;;;;5015456;28;20197;-34
2023/04/11 10:21:31;;;;;;;9.30;2.40;;;12.80;99.90;;;;;;5013960;28;20779;-34
2023/04/11 10:24:20;;;;;;;6.67;1.60;;;12.80;99.90;;;;;;5003249;28;20778;-34
2023/04/11 10:26:51;;;;;;;5.27;1.50;;;12.90;99.90;;;;;;5010981;28;20600;-34
2023/04/11 10:29:39;;;;;;;8.33;1.50;;;12.90;99.90;;;;;;5015114;28;20200;-34
2023/04/11 10:32:16;;;;;;;9.27;1.70;;;13.00;99.90;;;;;;5005071;28;20722;-36
2023/04/11 10:34:52;;;;;;;8.67;1.80;;;13.00;99.90;;;;;;5010157;28;20224;-34
2023/04/11 10:37:36;;;;;;;10.97;1.73;;;13.10;99.90;;;;;;5012057;28;20798;-34
2023/04/11 10:40:08;;;;;;;8.10;1.73;;;13.10;99.90;;;;;;5014466;28;20316;-34
2023/04/11 10:42:42;;;;;;;7.80;2.00;;;13.20;99.90;;;;;;5016940;28;20229;-36
2023/04/11 10:45:16;;;;;;;9.87;2.13;;;13.30;99.90;;;;;;5021759;28;20581;-35
2023/04/11 10:47:56;;;;;;;7.37;1.73;;;13.40;99.90;;;;;;5011056;28;20641;-34
2023/04/11 10:50:28;;;;;;;10.60;1.83;;;13.40;99.90;;;;;;5005171;28;20214;-34
2023/04/11 10:52:57;;;;;;;6.87;1.83;;;13.40;99.90;;;;;;5011458;28;20263;-34
2023/04/11 10:55:26;;;;;;;9.10;2.00;;;13.40;99.90;;;;;;5011507;28;20315;-34
2023/04/11 10:58:18;;;;;;;6.03;1.60;;;13.40;99.90;;;;;;5007565;28;20220;-34
2023/04/11 11:00:54;;;;;;;8.27;2.00;;;13.40;99.90;;;;;;5019214;28;20639;-34
2023/04/11 11:03:30;;;;;;;5.87;1.97;;;13.40;99.90;;;;;;5004480;28;20237;-34
2023/04/11 11:06:02;;;;;;;6.17;1.80;;;13.50;99.90;;;;;;5007956;28;20201;-34
2023/04/11 11:08:34;;;;;;;6.53;1.70;;;13.50;99.90;;;;;;5016137;28;20214;-34
2023/04/11 11:11:05;;;;;;;9.73;2.07;;;13.40;99.90;;;;;;5008282;28;20206;-34
2023/04/11 11:13:48;;;;;;;7.40;1.67;;;13.50;99.90;;;;;;5009186;28;20212;-34
2023/04/11 11:16:23;;;;;;;7.27;1.77;;;13.50;99.90;;;;;;5007726;28;20213;-34
2023/04/11 11:18:52;;;;;;;6.77;1.97;;;13.50;99.90;;;;;;5018149;28;20207;-34
2023/04/11 11:21:27;;;;;;;8.87;2.00;;;13.50;99.90;;;;;;5009095;28;20593;-34
2023/04/11 11:24:00;;;;;;;5.93;1.73;;;13.50;99.90;;;;;;5008223;28;20213;-34
2023/04/11 11:26:39;;;;;;;10.50;2.00;;;13.50;99.90;;;;;;5004942;28;20698;-34
2023/04/11 11:29:09;;;;;;;10.63;2.17;;;13.50;99.90;;;;;;5019806;28;20228;-34
2023/04/11 11:31:40;;;;;;;8.77;2.20;;;13.60;99.90;;;;;;5009234;28;20200;-34
2023/04/11 11:34:11;;;;;;;8.63;2.07;;;13.60;99.90;;;;;;5009689;28;20224;-34
2023/04/11 11:36:44;;;;;;;10.63;2.10;;;13.70;99.90;;;;;;5025657;28;20202;-34
2023/04/11 11:39:12;;;;;;;12.70;2.20;;;13.70;99.90;;;;;;5016200;28;20743;-34
2023/04/11 11:41:41;;;;;;;8.70;2.23;;;13.70;99.90;;;;;;5004962;28;20201;-34
2023/04/11 11:44:22;;;;;;;5.53;2.17;;;13.80;99.90;;;;;;5009107;28;20276;-35
2023/04/11 11:47:08;;;;;;;10.73;1.97;;;13.80;99.90;;;;;;5013033;28;20197;-34
2023/04/11 11:50:02;;;;;;;8.93;1.90;;;13.80;99.90;;;;;;5005229;28;20213;-34
2023/04/11 11:52:33;;;;;;;6.93;1.93;;;13.90;99.90;;;;;;5011364;28;20592;-34
2023/04/11 11:55:04;;;;;;;4.77;1.63;;;13.90;99.90;;;;;;5017803;28;20320;-34
2023/04/11 11:57:44;;;;;;;7.47;1.47;;;13.90;99.90;;;;;;5026842;28;20205;-34
2023/04/11 12:00:11;;;;;;;11.03;1.67;;;13.80;99.90;;;;;;5007751;28;20302;-34
2023/04/11 12:02:43;;;;;;;7.57;1.90;;;13.80;99.90;;;;;;5014509;28;20344;-34
2023/04/11 12:05:16;;;;;;;6.03;1.70;;;13.80;99.90;;;;;;5027949;28;20245;-34
2023/04/11 12:07:43;;;;;;;11.33;2.13;;;13.80;99.90;;;;;;5008976;28;20209;-34
2023/04/11 12:10:15;;;;;;;5.37;1.43;;;13.90;99.90;;;;;;5001548;28;20296;-34
2023/04/11 12:12:49;;;;;;;8.30;1.70;;;14.00;99.90;;;;;;5017468;28;20208;-34
2023/04/11 12:15:24;;;;;;;9.60;1.77;;;14.00;99.90;;;;;;5010971;28;20220;-34
2023/04/11 12:17:59;;;;;;;5.00;1.43;;;14.10;99.90;;;;;;5006000;28;20691;-34
2023/04/11 12:20:26;;;;;;;9.20;1.67;;;14.10;99.90;;;;;;5014565;28;20220;-34
2023/04/11 12:22:54;;;;;;;9.87;1.87;;;14.10;99.90;;;;;;5016786;28;20684;-34
2023/04/11 12:25:24;;;;;;;5.20;1.60;;;14.20;99.90;;;;;;5007709;28;20200;-34
2023/04/11 12:27:53;;;;;;;8.77;1.50;;;14.20;99.90;;;;;;5016487;28;20221;-34
2023/04/11 12:30:26;;;;;;;6.17;1.50;;;14.20;99.90;;;;;;5012980;28;20305;-34
2023/04/11 12:32:58;;;;;;;7.53;1.77;;;14.30;99.90;;;;;;5005510;28;20594;-34
2023/04/11 12:35:25;;;;;;;7.70;1.87;;;14.40;99.90;;;;;;5012869;28;20752;-34
2023/04/11 12:37:52;;;;;;;4.83;1.53;;;14.50;99.90;;;;;;5019825;28;20561;-34
2023/04/11 12:40:25;;;;;;;8.80;2.10;;;14.50;99.90;;;;;;5016498;28;20303;-34
2023/04/11 12:42:57;;;;;;;6.65;2.15;;;14.60;99.90;;;;;;5025081;28;20258;-34
2023/04/11 12:45:27;;;;;;;8.97;1.83;;;14.70;99.90;;;;;;5016291;28;20220;-34
2023/04/11 12:47:54;;;;;;;7.30;1.80;;;14.70;99.90;;;;;;5017705;28;20206;-34
2023/04/11 12:50:24;;;;;;;7.20;1.83;;;14.70;99.90;;;;;;5003077;28;20217;-34
2023/04/11 12:52:54;;;;;;;7.63;2.10;;;14.70;99.90;;;;;;5013085;28;20571;-34
2023/04/11 12:55:24;;;;;;;5.73;1.50;;;14.80;99.90;;;;;;5010641;28;20245;-34
2023/04/11 12:57:54;;;;;;;8.27;1.97;;;14.80;99.90;;;;;;5009802;28;20211;-34